sensor_id;sensor_type;location;lat;lon;timestamp;P1;durP1;ratioP1;P2;durP2;ratioP2
68089;SDS011;54880;50.986;6.990;2022-08-21T00:01:10;16.70;;;9.10;;
68089;SDS011;54880;50.986;6.990;2022-08-21T00:03:35;16.47;;;8.57;;
68089;SDS011;54880;50.986;6.990;2022-08-21T00:06:01;18.17;;;8.77;;
68089;SDS011;54880;50.986;6.990;2022-08-21T00:08:27;15.87;;;8.23;;
68089;SDS011;54880;50.986;6.990;2022-08-21T00:10:52;17.17;;;8.17;;
68089;SDS011;54880;50.986;6.990;2022-08-21T00:13:17;13.40;;;8.20;;
68089;SDS011;54880;50.986;6.990;2022-08-21T00:15:44;16.50;;;8.55;;
68089;SDS011;54880;50.986;6.990;2022-08-21T00:18:09;17.67;;;9.17;;
68089;SDS011;54880;50.986;6.990;2022-08-21T00:20:35;16.27;;;8.73;;
68089;SDS011;54880;50.986;6.990;2022-08-21T00:23:01;15.83;;;8.00;;
68089;SDS011;54880;50.986;6.990;2022-08-21T00:25:27;16.83;;;8.05;;
68089;SDS011;54880;50.986;6.990;2022-08-21T00:27:52;14.70;;;8.27;;
68089;SDS011;54880;50.986;6.990;2022-08-21T00:30:18;18.10;;;8.97;;
68089;SDS011;54880;50.986;6.990;2022-08-21T00:32:44;17.40;;;9.57;;
68089;SDS011;54880;50.986;6.990;2022-08-21T00:35:12;16.38;;;8.55;;
68089;SDS011;54880;50.986;6.990;2022-08-21T00:37:38;16.90;;;8.88;;
68089;SDS011;54880;50.986;6.990;2022-08-21T00:40:04;16.92;;;8.90;;
68089;SDS011;54880;50.986;6.990;2022-08-21T00:42:30;16.27;;;8.75;;
68089;SDS011;54880;50.986;6.990;2022-08-21T00:44:55;17.07;;;9.10;;
68089;SDS011;54880;50.986;6.990;2022-08-21T00:47:20;15.50;;;9.03;;
68089;SDS011;54880;50.986;6.990;2022-08-21T00:49:45;15.20;;;8.50;;
68089;SDS011;54880;50.986;6.990;2022-08-21T00:52:17;17.93;;;9.23;;
68089;SDS011;54880;50.986;6.990;2022-08-21T00:54:42;15.32;;;8.52;;
68089;SDS011;54880;50.986;6.990;2022-08-21T00:57:10;17.83;;;9.03;;
68089;SDS011;54880;50.986;6.990;2022-08-21T00:59:38;17.33;;;8.45;;
68089;SDS011;54880;50.986;6.990;2022-08-21T01:02:06;17.33;;;8.70;;
68089;SDS011;54880;50.986;6.990;2022-08-21T01:04:32;16.73;;;9.18;;
68089;SDS011;54880;50.986;6.990;2022-08-21T01:06:57;17.20;;;8.65;;
68089;SDS011;54880;50.986;6.990;2022-08-21T01:09:23;14.85;;;8.82;;
68089;SDS011;54880;50.986;6.990;2022-08-21T01:11:48;17.10;;;8.50;;
68089;SDS011;54880;50.986;6.990;2022-08-21T01:14:14;17.77;;;9.23;;
68089;SDS011;54880;50.986;6.990;2022-08-21T01:16:43;16.07;;;8.87;;
68089;SDS011;54880;50.986;6.990;2022-08-21T01:19:09;21.92;;;8.95;;
68089;SDS011;54880;50.986;6.990;2022-08-21T01:21:35;15.40;;;8.73;;
68089;SDS011;54880;50.986;6.990;2022-08-21T01:24:00;18.03;;;9.07;;
68089;SDS011;54880;50.986;6.990;2022-08-21T01:26:29;15.40;;;8.27;;
68089;SDS011;54880;50.986;6.990;2022-08-21T01:29:09;16.73;;;8.77;;
68089;SDS011;54880;50.986;6.990;2022-08-21T01:31:37;15.18;;;8.32;;
68089;SDS011;54880;50.986;6.990;2022-08-21T01:34:02;17.08;;;8.95;;
68089;SDS011;54880;50.986;6.990;2022-08-21T01:36:28;16.10;;;8.93;;
68089;SDS011;54880;50.986;6.990;2022-08-21T01:38:53;14.87;;;8.40;;
68089;SDS011;54880;50.986;6.990;2022-08-21T01:41:18;15.13;;;8.67;;
68089;SDS011;54880;50.986;6.990;2022-08-21T01:43:44;14.67;;;8.30;;
68089;SDS011;54880;50.986;6.990;2022-08-21T01:46:10;19.77;;;8.90;;
68089;SDS011;54880;50.986;6.990;2022-08-21T01:48:35;17.90;;;7.87;;
68089;SDS011;54880;50.986;6.990;2022-08-21T01:51:01;16.02;;;8.07;;
68089;SDS011;54880;50.986;6.990;2022-08-21T01:53:26;18.43;;;8.60;;
68089;SDS011;54880;50.986;6.990;2022-08-21T01:55:52;16.60;;;9.00;;
68089;SDS011;54880;50.986;6.990;2022-08-21T01:58:17;16.23;;;8.57;;
68089;SDS011;54880;50.986;6.990;2022-08-21T02:00:42;14.70;;;8.40;;
68089;SDS011;54880;50.986;6.990;2022-08-21T02:03:08;16.80;;;8.40;;
68089;SDS011;54880;50.986;6.990;2022-08-21T02:05:33;16.00;;;8.80;;
68089;SDS011;54880;50.986;6.990;2022-08-21T02:07:58;14.63;;;8.40;;
68089;SDS011;54880;50.986;6.990;2022-08-21T02:10:25;19.80;;;8.00;;
68089;SDS011;54880;50.986;6.990;2022-08-21T02:12:51;14.32;;;7.47;;
68089;SDS011;54880;50.986;6.990;2022-08-21T02:15:17;16.52;;;8.20;;
68089;SDS011;54880;50.986;6.990;2022-08-21T02:17:47;14.77;;;7.30;;
68089;SDS011;54880;50.986;6.990;2022-08-21T02:20:18;15.45;;;6.93;;
68089;SDS011;54880;50.986;6.990;2022-08-21T02:22:44;15.35;;;7.95;;
68089;SDS011;54880;50.986;6.990;2022-08-21T02:25:09;14.00;;;7.40;;
68089;SDS011;54880;50.986;6.990;2022-08-21T02:27:41;12.30;;;6.50;;
68089;SDS011;54880;50.986;6.990;2022-08-21T02:30:07;14.73;;;7.40;;
68089;SDS011;54880;50.986;6.990;2022-08-21T02:32:33;14.93;;;6.65;;
68089;SDS011;54880;50.986;6.990;2022-08-21T02:34:58;15.00;;;6.83;;
68089;SDS011;54880;50.986;6.990;2022-08-21T02:37:24;14.43;;;7.20;;
68089;SDS011;54880;50.986;6.990;2022-08-21T02:39:49;14.77;;;7.43;;
68089;SDS011;54880;50.986;6.990;2022-08-21T02:42:14;16.77;;;6.83;;
68089;SDS011;54880;50.986;6.990;2022-08-21T02:44:40;11.93;;;6.82;;
68089;SDS011;54880;50.986;6.990;2022-08-21T02:47:05;13.20;;;7.27;;
68089;SDS011;54880;50.986;6.990;2022-08-21T02:49:30;12.67;;;6.77;;
68089;SDS011;54880;50.986;6.990;2022-08-21T02:51:56;14.80;;;7.00;;
68089;SDS011;54880;50.986;6.990;2022-08-21T02:54:21;13.60;;;7.03;;
68089;SDS011;54880;50.986;6.990;2022-08-21T02:56:46;18.10;;;7.47;;
68089;SDS011;54880;50.986;6.990;2022-08-21T02:59:11;13.33;;;7.60;;
68089;SDS011;54880;50.986;6.990;2022-08-21T03:01:37;13.80;;;7.27;;
68089;SDS011;54880;50.986;6.990;2022-08-21T03:04:02;13.57;;;7.73;;
68089;SDS011;54880;50.986;6.990;2022-08-21T03:06:28;13.13;;;7.75;;
68089;SDS011;54880;50.986;6.990;2022-08-21T03:08:54;12.05;;;7.25;;
68089;SDS011;54880;50.986;6.990;2022-08-21T03:11:19;15.40;;;6.73;;
68089;SDS011;54880;50.986;6.990;2022-08-21T03:13:45;12.93;;;7.13;;
68089;SDS011;54880;50.986;6.990;2022-08-21T03:16:11;14.33;;;7.10;;
68089;SDS011;54880;50.986;6.990;2022-08-21T03:18:36;11.70;;;7.10;;
68089;SDS011;54880;50.986;6.990;2022-08-21T03:21:02;14.90;;;7.57;;
68089;SDS011;54880;50.986;6.990;2022-08-21T03:23:27;13.70;;;7.10;;
68089;SDS011;54880;50.986;6.990;2022-08-21T03:25:52;15.63;;;7.50;;
68089;SDS011;54880;50.986;6.990;2022-08-21T03:28:20;13.93;;;7.73;;
68089;SDS011;54880;50.986;6.990;2022-08-21T03:30:47;15.75;;;7.07;;
68089;SDS011;54880;50.986;6.990;2022-08-21T03:33:13;14.68;;;7.55;;
68089;SDS011;54880;50.986;6.990;2022-08-21T03:35:38;16.40;;;8.23;;
68089;SDS011;54880;50.986;6.990;2022-08-21T03:38:05;13.82;;;6.82;;
68089;SDS011;54880;50.986;6.990;2022-08-21T03:40:30;15.47;;;7.17;;
68089;SDS011;54880;50.986;6.990;2022-08-21T03:42:56;12.75;;;7.25;;
68089;SDS011;54880;50.986;6.990;2022-08-21T03:45:21;13.10;;;7.03;;
68089;SDS011;54880;50.986;6.990;2022-08-21T03:47:59;15.60;;;7.37;;
68089;SDS011;54880;50.986;6.990;2022-08-21T03:50:26;14.13;;;8.02;;
68089;SDS011;54880;50.986;6.990;2022-08-21T03:52:51;16.67;;;8.32;;
68089;SDS011;54880;50.986;6.990;2022-08-21T03:55:17;15.37;;;7.63;;
68089;SDS011;54880;50.986;6.990;2022-08-21T03:57:42;15.20;;;7.87;;
68089;SDS011;54880;50.986;6.990;2022-08-21T04:00:09;14.02;;;7.43;;
68089;SDS011;54880;50.986;6.990;2022-08-21T04:02:36;13.77;;;7.65;;
68089;SDS011;54880;50.986;6.990;2022-08-21T04:05:02;13.63;;;6.80;;
68089;SDS011;54880;50.986;6.990;2022-08-21T04:07:27;15.77;;;7.17;;
68089;SDS011;54880;50.986;6.990;2022-08-21T04:09:53;13.73;;;6.87;;
68089;SDS011;54880;50.986;6.990;2022-08-21T04:12:18;15.10;;;7.07;;
68089;SDS011;54880;50.986;6.990;2022-08-21T04:14:44;13.70;;;7.43;;
68089;SDS011;54880;50.986;6.990;2022-08-21T04:17:09;16.33;;;7.40;;
68089;SDS011;54880;50.986;6.990;2022-08-21T04:19:34;12.87;;;7.40;;
68089;SDS011;54880;50.986;6.990;2022-08-21T04:21:59;15.13;;;7.60;;
68089;SDS011;54880;50.986;6.990;2022-08-21T04:24:25;15.50;;;8.13;;
68089;SDS011;54880;50.986;6.990;2022-08-21T04:26:50;13.37;;;7.10;;
68089;SDS011;54880;50.986;6.990;2022-08-21T04:29:15;13.37;;;7.23;;
68089;SDS011;54880;50.986;6.990;2022-08-21T04:31:40;13.60;;;6.90;;
68089;SDS011;54880;50.986;6.990;2022-08-21T04:34:07;13.43;;;7.30;;
68089;SDS011;54880;50.986;6.990;2022-08-21T04:36:32;13.90;;;7.50;;
68089;SDS011;54880;50.986;6.990;2022-08-21T04:38:58;15.13;;;7.37;;
68089;SDS011;54880;50.986;6.990;2022-08-21T04:41:23;17.77;;;7.22;;
68089;SDS011;54880;50.986;6.990;2022-08-21T04:43:49;15.50;;;7.67;;
68089;SDS011;54880;50.986;6.990;2022-08-21T04:46:15;14.87;;;7.23;;
68089;SDS011;54880;50.986;6.990;2022-08-21T04:48:40;14.80;;;7.70;;
68089;SDS011;54880;50.986;6.990;2022-08-21T04:51:10;19.47;;;8.17;;
68089;SDS011;54880;50.986;6.990;2022-08-21T04:53:38;15.15;;;7.20;;
68089;SDS011;54880;50.986;6.990;2022-08-21T04:56:05;13.82;;;7.72;;
68089;SDS011;54880;50.986;6.990;2022-08-21T04:58:34;17.10;;;7.23;;
68089;SDS011;54880;50.986;6.990;2022-08-21T05:00:59;16.73;;;7.18;;
68089;SDS011;54880;50.986;6.990;2022-08-21T05:03:25;13.60;;;6.68;;
68089;SDS011;54880;50.986;6.990;2022-08-21T05:05:51;17.03;;;7.93;;
68089;SDS011;54880;50.986;6.990;2022-08-21T05:08:18;13.80;;;6.73;;
68089;SDS011;54880;50.986;6.990;2022-08-21T05:10:44;15.73;;;6.93;;
68089;SDS011;54880;50.986;6.990;2022-08-21T05:13:09;13.87;;;6.83;;
68089;SDS011;54880;50.986;6.990;2022-08-21T05:15:36;12.07;;;7.05;;
68089;SDS011;54880;50.986;6.990;2022-08-21T05:18:02;14.75;;;7.00;;
68089;SDS011;54880;50.986;6.990;2022-08-21T05:20:28;13.17;;;7.03;;
68089;SDS011;54880;50.986;6.990;2022-08-21T05:22:53;15.98;;;7.05;;
68089;SDS011;54880;50.986;6.990;2022-08-21T05:25:18;14.43;;;6.90;;
68089;SDS011;54880;50.986;6.990;2022-08-21T05:27:44;18.77;;;7.90;;
68089;SDS011;54880;50.986;6.990;2022-08-21T05:30:11;12.43;;;6.73;;
68089;SDS011;54880;50.986;6.990;2022-08-21T05:32:36;16.98;;;6.57;;
68089;SDS011;54880;50.986;6.990;2022-08-21T05:35:05;15.63;;;6.63;;
68089;SDS011;54880;50.986;6.990;2022-08-21T05:37:33;12.75;;;7.18;;
68089;SDS011;54880;50.986;6.990;2022-08-21T05:39:58;12.27;;;6.50;;
68089;SDS011;54880;50.986;6.990;2022-08-21T05:42:24;14.13;;;7.75;;
68089;SDS011;54880;50.986;6.990;2022-08-21T05:44:49;13.00;;;7.40;;
68089;SDS011;54880;50.986;6.990;2022-08-21T05:47:14;16.50;;;7.63;;
68089;SDS011;54880;50.986;6.990;2022-08-21T05:49:39;15.17;;;7.97;;
68089;SDS011;54880;50.986;6.990;2022-08-21T05:52:05;15.87;;;8.10;;
68089;SDS011;54880;50.986;6.990;2022-08-21T05:54:30;15.63;;;7.47;;
68089;SDS011;54880;50.986;6.990;2022-08-21T05:56:55;16.73;;;7.97;;
68089;SDS011;54880;50.986;6.990;2022-08-21T05:59:21;15.80;;;8.17;;
68089;SDS011;54880;50.986;6.990;2022-08-21T06:01:46;14.70;;;7.63;;
68089;SDS011;54880;50.986;6.990;2022-08-21T06:04:11;14.87;;;7.97;;
68089;SDS011;54880;50.986;6.990;2022-08-21T06:06:37;15.15;;;8.10;;
68089;SDS011;54880;50.986;6.990;2022-08-21T06:09:02;15.37;;;7.70;;
68089;SDS011;54880;50.986;6.990;2022-08-21T06:11:28;15.07;;;7.60;;
68089;SDS011;54880;50.986;6.990;2022-08-21T06:13:53;16.10;;;7.97;;
68089;SDS011;54880;50.986;6.990;2022-08-21T06:16:18;13.33;;;7.50;;
68089;SDS011;54880;50.986;6.990;2022-08-21T06:18:44;15.93;;;8.43;;
68089;SDS011;54880;50.986;6.990;2022-08-21T06:21:10;14.15;;;7.75;;
68089;SDS011;54880;50.986;6.990;2022-08-21T06:23:36;13.35;;;7.47;;
68089;SDS011;54880;50.986;6.990;2022-08-21T06:26:02;17.67;;;8.03;;
68089;SDS011;54880;50.986;6.990;2022-08-21T06:28:28;15.23;;;7.78;;
68089;SDS011;54880;50.986;6.990;2022-08-21T06:30:53;15.97;;;8.00;;
68089;SDS011;54880;50.986;6.990;2022-08-21T06:33:19;18.73;;;7.97;;
68089;SDS011;54880;50.986;6.990;2022-08-21T06:35:44;14.53;;;7.83;;
68089;SDS011;54880;50.986;6.990;2022-08-21T06:38:09;14.53;;;8.10;;
68089;SDS011;54880;50.986;6.990;2022-08-21T06:40:35;15.52;;;8.05;;
68089;SDS011;54880;50.986;6.990;2022-08-21T06:43:11;15.00;;;7.70;;
68089;SDS011;54880;50.986;6.990;2022-08-21T06:45:36;16.20;;;7.28;;
68089;SDS011;54880;50.986;6.990;2022-08-21T06:48:02;13.87;;;7.63;;
68089;SDS011;54880;50.986;6.990;2022-08-21T06:50:27;13.35;;;7.65;;
68089;SDS011;54880;50.986;6.990;2022-08-21T06:53:07;15.15;;;7.95;;
68089;SDS011;54880;50.986;6.990;2022-08-21T06:55:33;14.18;;;6.93;;
68089;SDS011;54880;50.986;6.990;2022-08-21T06:57:58;14.53;;;7.47;;
68089;SDS011;54880;50.986;6.990;2022-08-21T07:00:24;13.87;;;7.53;;
68089;SDS011;54880;50.986;6.990;2022-08-21T07:02:49;13.45;;;6.65;;
68089;SDS011;54880;50.986;6.990;2022-08-21T07:05:14;14.63;;;7.60;;
68089;SDS011;54880;50.986;6.990;2022-08-21T07:07:40;12.17;;;6.43;;
68089;SDS011;54880;50.986;6.990;2022-08-21T07:10:05;14.43;;;7.67;;
68089;SDS011;54880;50.986;6.990;2022-08-21T07:12:31;15.43;;;7.00;;
68089;SDS011;54880;50.986;6.990;2022-08-21T07:14:56;16.90;;;7.90;;
68089;SDS011;54880;50.986;6.990;2022-08-21T07:17:21;14.52;;;7.22;;
68089;SDS011;54880;50.986;6.990;2022-08-21T07:19:46;13.80;;;7.17;;
68089;SDS011;54880;50.986;6.990;2022-08-21T07:22:12;15.30;;;6.80;;
68089;SDS011;54880;50.986;6.990;2022-08-21T07:24:38;14.60;;;7.03;;
68089;SDS011;54880;50.986;6.990;2022-08-21T07:27:03;15.33;;;7.00;;
68089;SDS011;54880;50.986;6.990;2022-08-21T07:29:28;12.63;;;5.97;;
68089;SDS011;54880;50.986;6.990;2022-08-21T07:31:53;14.80;;;6.33;;
68089;SDS011;54880;50.986;6.990;2022-08-21T07:34:19;12.47;;;5.80;;
68089;SDS011;54880;50.986;6.990;2022-08-21T07:36:44;14.75;;;5.88;;
68089;SDS011;54880;50.986;6.990;2022-08-21T07:39:11;12.40;;;5.10;;
68089;SDS011;54880;50.986;6.990;2022-08-21T07:41:36;11.97;;;5.07;;
68089;SDS011;54880;50.986;6.990;2022-08-21T07:44:02;14.47;;;4.40;;
68089;SDS011;54880;50.986;6.990;2022-08-21T07:46:28;12.38;;;3.97;;
68089;SDS011;54880;50.986;6.990;2022-08-21T07:48:53;11.17;;;3.80;;
68089;SDS011;54880;50.986;6.990;2022-08-21T07:51:19;8.83;;;3.63;;
68089;SDS011;54880;50.986;6.990;2022-08-21T07:53:49;14.75;;;4.10;;
68089;SDS011;54880;50.986;6.990;2022-08-21T07:56:15;10.80;;;3.35;;
68089;SDS011;54880;50.986;6.990;2022-08-21T07:58:40;13.13;;;3.10;;
68089;SDS011;54880;50.986;6.990;2022-08-21T08:01:06;11.57;;;2.93;;
68089;SDS011;54880;50.986;6.990;2022-08-21T08:03:31;9.27;;;3.37;;
68089;SDS011;54880;50.986;6.990;2022-08-21T08:05:57;11.23;;;3.90;;
68089;SDS011;54880;50.986;6.990;2022-08-21T08:08:23;11.75;;;3.55;;
68089;SDS011;54880;50.986;6.990;2022-08-21T08:10:48;11.18;;;3.58;;
68089;SDS011;54880;50.986;6.990;2022-08-21T08:13:14;11.77;;;3.50;;
68089;SDS011;54880;50.986;6.990;2022-08-21T08:15:39;11.00;;;2.92;;
68089;SDS011;54880;50.986;6.990;2022-08-21T08:18:05;16.75;;;6.10;;
68089;SDS011;54880;50.986;6.990;2022-08-21T08:20:30;13.33;;;4.03;;
68089;SDS011;54880;50.986;6.990;2022-08-21T08:22:56;9.40;;;2.77;;
68089;SDS011;54880;50.986;6.990;2022-08-21T08:25:21;9.83;;;2.87;;
68089;SDS011;54880;50.986;6.990;2022-08-21T08:27:48;11.05;;;3.08;;
68089;SDS011;54880;50.986;6.990;2022-08-21T08:30:14;9.70;;;2.83;;
68089;SDS011;54880;50.986;6.990;2022-08-21T08:32:39;13.90;;;3.97;;
68089;SDS011;54880;50.986;6.990;2022-08-21T08:35:05;14.75;;;2.88;;
68089;SDS011;54880;50.986;6.990;2022-08-21T08:37:31;10.33;;;2.53;;
68089;SDS011;54880;50.986;6.990;2022-08-21T08:39:57;10.57;;;2.20;;
68089;SDS011;54880;50.986;6.990;2022-08-21T08:42:27;9.97;;;3.00;;
68089;SDS011;54880;50.986;6.990;2022-08-21T08:44:55;12.07;;;3.10;;
68089;SDS011;54880;50.986;6.990;2022-08-21T08:47:22;8.35;;;2.33;;
68089;SDS011;54880;50.986;6.990;2022-08-21T08:49:55;10.45;;;2.65;;
68089;SDS011;54880;50.986;6.990;2022-08-21T08:52:43;10.88;;;2.72;;
68089;SDS011;54880;50.986;6.990;2022-08-21T08:55:14;9.35;;;2.63;;
68089;SDS011;54880;50.986;6.990;2022-08-21T08:57:42;9.75;;;2.58;;
68089;SDS011;54880;50.986;6.990;2022-08-21T09:00:10;9.43;;;2.35;;
68089;SDS011;54880;50.986;6.990;2022-08-21T09:02:40;9.60;;;2.65;;
68089;SDS011;54880;50.986;6.990;2022-08-21T09:05:06;12.10;;;2.33;;
68089;SDS011;54880;50.986;6.990;2022-08-21T09:07:39;7.95;;;2.30;;
68089;SDS011;54880;50.986;6.990;2022-08-21T09:17:40;13.73;;;3.00;;
68089;SDS011;54880;50.986;6.990;2022-08-21T09:20:23;38.72;;;3.88;;
68089;SDS011;54880;50.986;6.990;2022-08-21T09:25:25;10.93;;;2.00;;
68089;SDS011;54880;50.986;6.990;2022-08-21T09:27:51;10.82;;;2.53;;
68089;SDS011;54880;50.986;6.990;2022-08-21T09:30:17;8.90;;;2.00;;
68089;SDS011;54880;50.986;6.990;2022-08-21T09:32:43;10.30;;;2.15;;
68089;SDS011;54880;50.986;6.990;2022-08-21T09:37:35;11.33;;;2.20;;
68089;SDS011;54880;50.986;6.990;2022-08-21T09:40:00;10.73;;;2.20;;
68089;SDS011;54880;50.986;6.990;2022-08-21T09:42:28;10.95;;;1.98;;
68089;SDS011;54880;50.986;6.990;2022-08-21T09:47:31;11.63;;;2.28;;
68089;SDS011;54880;50.986;6.990;2022-08-21T09:49:56;10.60;;;2.33;;
68089;SDS011;54880;50.986;6.990;2022-08-21T09:52:31;9.45;;;2.25;;
68089;SDS011;54880;50.986;6.990;2022-08-21T09:54:57;8.80;;;2.28;;
68089;SDS011;54880;50.986;6.990;2022-08-21T09:57:26;9.63;;;2.10;;
68089;SDS011;54880;50.986;6.990;2022-08-21T10:00:26;9.60;;;2.10;;
68089;SDS011;54880;50.986;6.990;2022-08-21T10:02:52;8.88;;;2.17;;
68089;SDS011;54880;50.986;6.990;2022-08-21T10:05:24;9.33;;;2.07;;
68089;SDS011;54880;50.986;6.990;2022-08-21T10:07:50;9.35;;;2.25;;
68089;SDS011;54880;50.986;6.990;2022-08-21T10:10:20;9.40;;;1.87;;
68089;SDS011;54880;50.986;6.990;2022-08-21T10:15:46;10.02;;;2.20;;
68089;SDS011;54880;50.986;6.990;2022-08-21T10:18:17;7.57;;;1.92;;
68089;SDS011;54880;50.986;6.990;2022-08-21T10:20:44;9.97;;;1.80;;
68089;SDS011;54880;50.986;6.990;2022-08-21T10:25:49;7.25;;;1.80;;
68089;SDS011;54880;50.986;6.990;2022-08-21T10:28:19;9.57;;;1.75;;
68089;SDS011;54880;50.986;6.990;2022-08-21T10:31:00;9.85;;;2.00;;
68089;SDS011;54880;50.986;6.990;2022-08-21T10:36:41;10.82;;;2.80;;
68089;SDS011;54880;50.986;6.990;2022-08-21T10:39:18;7.85;;;2.38;;
68089;SDS011;54880;50.986;6.990;2022-08-21T10:41:55;9.00;;;2.30;;
68089;SDS011;54880;50.986;6.990;2022-08-21T10:44:29;9.18;;;2.13;;
68089;SDS011;54880;50.986;6.990;2022-08-21T10:56:48;12.32;;;2.25;;
68089;SDS011;54880;50.986;6.990;2022-08-21T10:59:31;11.25;;;2.08;;
68089;SDS011;54880;50.986;6.990;2022-08-21T11:02:00;9.35;;;1.75;;
68089;SDS011;54880;50.986;6.990;2022-08-21T11:04:32;10.38;;;1.90;;
68089;SDS011;54880;50.986;6.990;2022-08-21T11:07:03;8.87;;;2.07;;
68089;SDS011;54880;50.986;6.990;2022-08-21T11:09:28;8.18;;;2.53;;
68089;SDS011;54880;50.986;6.990;2022-08-21T11:14:41;7.40;;;1.77;;
68089;SDS011;54880;50.986;6.990;2022-08-21T11:17:11;10.55;;;2.80;;
68089;SDS011;54880;50.986;6.990;2022-08-21T11:19:39;9.90;;;1.90;;
68089;SDS011;54880;50.986;6.990;2022-08-21T11:24:42;6.65;;;1.80;;
68089;SDS011;54880;50.986;6.990;2022-08-21T11:27:15;10.05;;;1.77;;
68089;SDS011;54880;50.986;6.990;2022-08-21T11:29:43;7.55;;;1.83;;
68089;SDS011;54880;50.986;6.990;2022-08-21T11:32:25;9.10;;;1.80;;
68089;SDS011;54880;50.986;6.990;2022-08-21T11:35:03;7.30;;;1.40;;
68089;SDS011;54880;50.986;6.990;2022-08-21T11:40:24;6.57;;;1.80;;
68089;SDS011;54880;50.986;6.990;2022-08-21T11:47:56;7.82;;;1.83;;
68089;SDS011;54880;50.986;6.990;2022-08-21T11:50:27;7.82;;;2.00;;
68089;SDS011;54880;50.986;6.990;2022-08-21T11:53:04;7.97;;;1.58;;
68089;SDS011;54880;50.986;6.990;2022-08-21T11:55:41;8.20;;;1.70;;
68089;SDS011;54880;50.986;6.990;2022-08-21T11:58:20;8.70;;;1.75;;
68089;SDS011;54880;50.986;6.990;2022-08-21T12:00:56;8.93;;;1.52;;
68089;SDS011;54880;50.986;6.990;2022-08-21T12:03:30;7.45;;;2.25;;
68089;SDS011;54880;50.986;6.990;2022-08-21T12:05:58;7.28;;;1.98;;
68089;SDS011;54880;50.986;6.990;2022-08-21T12:08:29;6.43;;;1.55;;
68089;SDS011;54880;50.986;6.990;2022-08-21T12:11:28;8.45;;;1.83;;
68089;SDS011;54880;50.986;6.990;2022-08-21T12:13:57;9.20;;;2.28;;
68089;SDS011;54880;50.986;6.990;2022-08-21T12:16:43;8.82;;;1.77;;
68089;SDS011;54880;50.986;6.990;2022-08-21T12:24:17;6.73;;;1.90;;
68089;SDS011;54880;50.986;6.990;2022-08-21T12:26:55;8.57;;;2.70;;
68089;SDS011;54880;50.986;6.990;2022-08-21T12:29:35;7.07;;;1.50;;
68089;SDS011;54880;50.986;6.990;2022-08-21T12:35:02;9.27;;;2.33;;
68089;SDS011;54880;50.986;6.990;2022-08-21T12:39:45;7.70;;;1.50;;
68089;SDS011;54880;50.986;6.990;2022-08-21T12:42:15;7.95;;;1.77;;
68089;SDS011;54880;50.986;6.990;2022-08-21T12:47:17;7.35;;;1.88;;
68089;SDS011;54880;50.986;6.990;2022-08-21T12:52:29;8.25;;;1.90;;
68089;SDS011;54880;50.986;6.990;2022-08-21T12:54:55;5.97;;;1.63;;
68089;SDS011;54880;50.986;6.990;2022-08-21T12:57:22;8.47;;;1.90;;
68089;SDS011;54880;50.986;6.990;2022-08-21T12:59:51;7.88;;;1.70;;
68089;SDS011;54880;50.986;6.990;2022-08-21T13:02:18;7.80;;;1.40;;
68089;SDS011;54880;50.986;6.990;2022-08-21T13:04:44;6.80;;;1.90;;
68089;SDS011;54880;50.986;6.990;2022-08-21T13:07:12;7.80;;;1.83;;
68089;SDS011;54880;50.986;6.990;2022-08-21T13:09:44;10.15;;;2.20;;
68089;SDS011;54880;50.986;6.990;2022-08-21T13:12:11;9.70;;;2.80;;
68089;SDS011;54880;50.986;6.990;2022-08-21T13:14:41;8.85;;;1.83;;
68089;SDS011;54880;50.986;6.990;2022-08-21T13:17:07;8.07;;;2.45;;
68089;SDS011;54880;50.986;6.990;2022-08-21T13:19:33;7.55;;;1.55;;
68089;SDS011;54880;50.986;6.990;2022-08-21T13:21:59;8.52;;;1.77;;
68089;SDS011;54880;50.986;6.990;2022-08-21T13:24:25;8.27;;;1.97;;
68089;SDS011;54880;50.986;6.990;2022-08-21T13:26:52;7.57;;;2.10;;
68089;SDS011;54880;50.986;6.990;2022-08-21T13:29:19;8.98;;;2.00;;
68089;SDS011;54880;50.986;6.990;2022-08-21T13:31:49;9.88;;;1.75;;
68089;SDS011;54880;50.986;6.990;2022-08-21T13:34:15;7.68;;;2.13;;
68089;SDS011;54880;50.986;6.990;2022-08-21T13:36:41;7.60;;;1.65;;
68089;SDS011;54880;50.986;6.990;2022-08-21T13:39:08;8.38;;;2.20;;
68089;SDS011;54880;50.986;6.990;2022-08-21T13:41:35;8.90;;;1.83;;
68089;SDS011;54880;50.986;6.990;2022-08-21T13:46:28;11.00;;;3.90;;
68089;SDS011;54880;50.986;6.990;2022-08-21T13:48:54;8.95;;;1.95;;
68089;SDS011;54880;50.986;6.990;2022-08-21T13:51:20;8.50;;;1.88;;
68089;SDS011;54880;50.986;6.990;2022-08-21T13:53:47;7.83;;;1.80;;
68089;SDS011;54880;50.986;6.990;2022-08-21T13:58:48;7.72;;;2.28;;
68089;SDS011;54880;50.986;6.990;2022-08-21T14:01:18;7.93;;;1.70;;
68089;SDS011;54880;50.986;6.990;2022-08-21T14:03:44;7.68;;;1.83;;
68089;SDS011;54880;50.986;6.990;2022-08-21T14:06:11;14.57;;;4.23;;
68089;SDS011;54880;50.986;6.990;2022-08-21T14:08:37;8.63;;;2.85;;
68089;SDS011;54880;50.986;6.990;2022-08-21T14:11:05;6.60;;;1.88;;
68089;SDS011;54880;50.986;6.990;2022-08-21T14:13:36;19.52;;;11.13;;
68089;SDS011;54880;50.986;6.990;2022-08-21T14:16:03;9.02;;;3.65;;
68089;SDS011;54880;50.986;6.990;2022-08-21T14:18:42;6.57;;;1.88;;
68089;SDS011;54880;50.986;6.990;2022-08-21T14:21:08;6.95;;;1.90;;
68089;SDS011;54880;50.986;6.990;2022-08-21T14:23:34;7.68;;;1.80;;
68089;SDS011;54880;50.986;6.990;2022-08-21T14:26:00;8.00;;;1.80;;
68089;SDS011;54880;50.986;6.990;2022-08-21T14:28:30;8.82;;;1.80;;
68089;SDS011;54880;50.986;6.990;2022-08-21T14:30:57;7.18;;;1.90;;
68089;SDS011;54880;50.986;6.990;2022-08-21T14:33:27;7.30;;;1.60;;
68089;SDS011;54880;50.986;6.990;2022-08-21T14:35:53;8.63;;;3.10;;
68089;SDS011;54880;50.986;6.990;2022-08-21T14:38:20;6.77;;;1.87;;
68089;SDS011;54880;50.986;6.990;2022-08-21T14:40:52;7.22;;;1.90;;
68089;SDS011;54880;50.986;6.990;2022-08-21T14:43:17;8.27;;;1.40;;
68089;SDS011;54880;50.986;6.990;2022-08-21T14:45:44;8.35;;;1.80;;
68089;SDS011;54880;50.986;6.990;2022-08-21T14:48:09;9.53;;;1.43;;
68089;SDS011;54880;50.986;6.990;2022-08-21T14:50:35;8.33;;;1.60;;
68089;SDS011;54880;50.986;6.990;2022-08-21T14:53:00;7.77;;;1.70;;
68089;SDS011;54880;50.986;6.990;2022-08-21T14:55:26;5.82;;;2.20;;
68089;SDS011;54880;50.986;6.990;2022-08-21T14:57:52;6.77;;;1.73;;
68089;SDS011;54880;50.986;6.990;2022-08-21T15:00:19;8.30;;;1.70;;
68089;SDS011;54880;50.986;6.990;2022-08-21T15:02:44;6.50;;;1.38;;
68089;SDS011;54880;50.986;6.990;2022-08-21T15:05:10;8.30;;;2.00;;
68089;SDS011;54880;50.986;6.990;2022-08-21T15:07:36;9.32;;;1.98;;
68089;SDS011;54880;50.986;6.990;2022-08-21T15:10:03;8.45;;;1.90;;
68089;SDS011;54880;50.986;6.990;2022-08-21T15:12:28;7.00;;;1.60;;
68089;SDS011;54880;50.986;6.990;2022-08-21T15:14:54;7.23;;;1.70;;
68089;SDS011;54880;50.986;6.990;2022-08-21T15:17:19;6.43;;;1.30;;
68089;SDS011;54880;50.986;6.990;2022-08-21T15:19:45;6.55;;;1.63;;
68089;SDS011;54880;50.986;6.990;2022-08-21T15:22:10;7.03;;;1.40;;
68089;SDS011;54880;50.986;6.990;2022-08-21T15:24:35;7.77;;;1.90;;
68089;SDS011;54880;50.986;6.990;2022-08-21T15:27:01;5.07;;;1.30;;
68089;SDS011;54880;50.986;6.990;2022-08-21T15:29:28;5.90;;;1.30;;
68089;SDS011;54880;50.986;6.990;2022-08-21T15:31:55;8.45;;;1.80;;
68089;SDS011;54880;50.986;6.990;2022-08-21T15:34:21;5.57;;;1.48;;
68089;SDS011;54880;50.986;6.990;2022-08-21T15:36:47;6.18;;;1.50;;
68089;SDS011;54880;50.986;6.990;2022-08-21T15:39:12;7.53;;;1.80;;
68089;SDS011;54880;50.986;6.990;2022-08-21T15:41:38;5.77;;;1.57;;
68089;SDS011;54880;50.986;6.990;2022-08-21T15:44:03;6.60;;;1.30;;
68089;SDS011;54880;50.986;6.990;2022-08-21T15:46:28;10.30;;;2.08;;